Time;durP1;ratioP1;P1;durP2;ratioP2;P2;SDS_P1;SDS_P2;PMS_P1;PMS_P2;Temp;Humidity;BMP_temperature;BMP_pressure;BME280_temperature;BME280_humidity;BME280_pressure;Samples;Min_cycle;Max_cycle;Signal;HPM_P1;HPM_P2
2023/11/29 00:01:54;;;;;;;4.93;2.87;;;21.20;78.40;;;;;;5029758;28;20461;-63
2023/11/29 00:04:21;;;;;;;4.30;3.60;;;21.20;78.50;;;;;;5030197;28;21093;-63
2023/11/29 00:06:48;;;;;;;3.33;2.80;;;21.20;78.50;;;;;;5025523;28;20469;-64
2023/11/29 00:09:15;;;;;;;4.40;3.57;;;21.20;78.60;;;;;;5023653;28;20458;-64
2023/11/29 00:11:44;;;;;;;3.20;2.80;;;21.20;78.50;;;;;;5022765;28;20497;-64
2023/11/29 00:14:11;;;;;;;3.07;2.23;;;21.20;78.30;;;;;;5022925;28;20453;-64
2023/11/29 00:16:37;;;;;;;3.63;2.60;;;21.20;78.80;;;;;;5022178;28;20458;-63
2023/11/29 00:19:04;;;;;;;3.90;3.30;;;21.20;78.70;;;;;;5017116;28;20461;-64
2023/11/29 00:21:32;;;;;;;2.80;2.20;;;21.20;78.70;;;;;;5021413;28;20462;-63
2023/11/29 00:23:59;;;;;;;3.87;2.50;;;21.20;78.70;;;;;;5023691;28;20464;-64
2023/11/29 00:26:26;;;;;;;4.00;2.67;;;21.20;78.80;;;;;;5020670;28;20457;-63
2023/11/29 00:28:54;;;;;;;3.60;3.17;;;21.20;78.70;;;;;;5019793;28;20933;-63
2023/11/29 00:31:20;;;;;;;3.37;2.60;;;21.20;78.90;;;;;;5021814;28;20463;-63
2023/11/29 00:33:47;;;;;;;2.83;2.50;;;21.20;79.00;;;;;;5024210;28;20460;-63
2023/11/29 00:36:14;;;;;;;3.93;2.70;;;21.20;78.10;;;;;;5027742;28;20461;-64
2023/11/29 00:38:40;;;;;;;4.23;3.07;;;21.20;79.00;;;;;;5025154;28;20453;-64
2023/11/29 00:41:07;;;;;;;5.40;3.10;;;21.20;79.00;;;;;;5028403;28;20457;-64
2023/11/29 00:43:35;;;;;;;2.90;2.60;;;21.20;79.00;;;;;;5021513;28;20545;-63
2023/11/29 00:46:04;;;;;;;4.22;3.28;;;21.20;79.20;;;;;;5024308;28;21249;-63
2023/11/29 00:48:30;;;;;;;3.45;2.42;;;21.20;79.10;;;;;;5022734;28;20207;-63
2023/11/29 00:50:57;;;;;;;4.37;2.83;;;21.20;79.20;;;;;;5022635;28;20199;-63
2023/11/29 00:53:24;;;;;;;2.57;2.37;;;21.20;79.10;;;;;;5021001;28;20496;-63
2023/11/29 00:55:51;;;;;;;2.60;2.37;;;21.20;79.10;;;;;;5027326;28;20795;-63
2023/11/29 00:58:18;;;;;;;2.90;2.40;;;21.30;79.20;;;;;;5023932;28;20466;-64
2023/11/29 01:00:44;;;;;;;3.93;2.80;;;21.20;79.30;;;;;;5025535;28;20492;-65
2023/11/29 01:03:12;;;;;;;3.47;2.27;;;21.20;79.30;;;;;;5024905;28;20474;-63
2023/11/29 01:05:39;;;;;;;3.30;2.93;;;21.20;79.20;;;;;;5024180;28;20458;-64
2023/11/29 01:08:06;;;;;;;3.10;2.53;;;21.20;79.00;;;;;;5023604;28;20455;-63
2023/11/29 01:10:33;;;;;;;3.30;2.67;;;21.20;79.20;;;;;;5023449;28;20782;-63
2023/11/29 01:12:59;;;;;;;3.37;2.40;;;21.20;79.40;;;;;;5021753;28;20492;-63
2023/11/29 01:15:26;;;;;;;3.90;2.50;;;21.20;79.40;;;;;;5022536;28;21126;-64
2023/11/29 01:17:53;;;;;;;4.97;2.90;;;21.20;79.30;;;;;;5021159;28;20465;-64
2023/11/29 01:20:21;;;;;;;3.30;2.77;;;21.20;79.40;;;;;;5021708;28;20462;-63
2023/11/29 01:22:48;;;;;;;4.10;2.83;;;21.30;79.50;;;;;;5025552;28;20462;-64
2023/11/29 01:25:15;;;;;;;3.70;2.63;;;21.20;79.30;;;;;;5025195;28;21072;-64
2023/11/29 01:27:42;;;;;;;2.90;2.20;;;21.20;79.40;;;;;;5024160;28;20448;-64
2023/11/29 01:30:09;;;;;;;2.73;2.53;;;21.20;79.30;;;;;;5019801;28;20449;-64
2023/11/29 01:32:36;;;;;;;3.27;2.37;;;21.20;79.50;;;;;;5020679;28;20480;-63
2023/11/29 01:35:02;;;;;;;3.70;2.93;;;21.20;79.50;;;;;;5022732;28;20454;-64
2023/11/29 01:37:30;;;;;;;3.40;2.60;;;21.20;79.40;;;;;;5021916;28;20557;-64
2023/11/29 01:39:57;;;;;;;2.97;2.60;;;21.20;79.60;;;;;;5022284;28;20911;-64
2023/11/29 01:42:24;;;;;;;4.57;2.57;;;21.30;79.60;;;;;;5021546;28;20465;-63
2023/11/29 01:44:51;;;;;;;2.97;2.53;;;21.20;79.30;;;;;;5022784;28;20461;-64
2023/11/29 01:47:18;;;;;;;3.30;2.20;;;21.20;79.70;;;;;;5022396;28;20462;-64
2023/11/29 01:49:45;;;;;;;2.72;2.47;;;21.30;79.80;;;;;;5016528;28;20466;-63
2023/11/29 01:52:14;;;;;;;3.03;2.50;;;21.30;79.70;;;;;;5019829;28;20228;-63
2023/11/29 01:54:42;;;;;;;3.87;2.63;;;21.20;79.70;;;;;;5020942;28;20446;-64
2023/11/29 01:57:09;;;;;;;2.73;2.23;;;21.30;79.80;;;;;;5018553;28;20466;-63
2023/11/29 01:59:37;;;;;;;4.23;2.97;;;21.20;79.60;;;;;;5021798;28;20466;-64
2023/11/29 02:02:04;;;;;;;2.77;2.07;;;21.30;79.00;;;;;;5019101;28;20458;-64
2023/11/29 02:04:31;;;;;;;5.37;2.50;;;21.30;79.90;;;;;;5019220;28;20470;-64
2023/11/29 02:06:57;;;;;;;3.67;2.20;;;21.30;80.00;;;;;;5020666;28;20925;-63
2023/11/29 02:09:24;;;;;;;2.30;1.80;;;21.20;79.70;;;;;;5020755;28;20696;-63
2023/11/29 02:11:55;;;;;;;3.20;2.47;;;21.20;79.80;;;;;;5020961;28;20462;-64
2023/11/29 02:14:22;;;;;;;3.50;2.70;;;21.30;80.00;;;;;;5020136;28;20949;-65
2023/11/29 02:16:48;;;;;;;3.03;2.67;;;21.30;79.80;;;;;;5019086;28;21281;-63
2023/11/29 02:19:15;;;;;;;4.47;2.63;;;21.30;79.20;;;;;;5021758;28;20989;-63
2023/11/29 02:21:42;;;;;;;3.33;2.43;;;21.20;79.70;;;;;;5022946;28;20823;-63
2023/11/29 02:24:15;;;;;;;2.83;2.33;;;21.20;79.70;;;;;;5020059;28;20469;-64
2023/11/29 02:26:43;;;;;;;2.47;2.27;;;21.20;79.80;;;;;;5023674;28;20914;-64
2023/11/29 02:29:10;;;;;;;3.53;2.37;;;21.30;79.80;;;;;;5023540;28;20475;-64
2023/11/29 02:31:36;;;;;;;3.77;3.00;;;21.30;80.00;;;;;;5021746;28;20455;-64
2023/11/29 02:34:04;;;;;;;2.33;1.93;;;21.30;80.00;;;;;;5025588;28;20479;-64
2023/11/29 02:36:31;;;;;;;2.67;2.17;;;21.30;80.00;;;;;;5022224;28;20463;-64
2023/11/29 02:38:58;;;;;;;3.40;2.23;;;21.20;79.60;;;;;;5023511;28;20457;-64
2023/11/29 02:41:24;;;;;;;2.30;2.03;;;21.20;79.80;;;;;;5023505;28;20460;-64
2023/11/29 02:43:55;;;;;;;2.10;1.90;;;21.30;79.90;;;;;;5024949;28;20457;-63
2023/11/29 02:46:22;;;;;;;3.80;1.90;;;21.30;79.80;;;;;;5018393;28;20218;-63
2023/11/29 02:48:49;;;;;;;2.63;2.13;;;21.20;79.80;;;;;;5027327;28;20816;-63
2023/11/29 02:51:16;;;;;;;2.10;1.90;;;21.30;80.00;;;;;;5023932;28;20461;-63
2023/11/29 02:53:43;;;;;;;3.30;2.10;;;21.30;79.90;;;;;;5027873;28;20547;-65
2023/11/29 02:56:10;;;;;;;2.30;2.10;;;21.30;80.00;;;;;;5020448;28;20478;-64
2023/11/29 02:58:36;;;;;;;3.00;2.20;;;21.30;79.90;;;;;;5020154;28;20461;-64
2023/11/29 03:01:05;;;;;;;3.63;2.10;;;21.20;79.90;;;;;;5021195;28;21014;-64
2023/11/29 03:03:32;;;;;;;3.97;2.40;;;21.30;79.90;;;;;;5017120;28;20484;-64
2023/11/29 03:05:58;;;;;;;2.20;2.00;;;21.20;79.70;;;;;;5020072;28;20466;-65
2023/11/29 03:08:25;;;;;;;3.33;3.00;;;21.30;79.90;;;;;;5018922;28;20209;-63
2023/11/29 03:10:53;;;;;;;2.97;2.67;;;21.30;79.90;;;;;;5023513;28;21548;-65
2023/11/29 03:13:20;;;;;;;2.50;1.90;;;21.30;79.80;;;;;;5020384;28;20504;-64
2023/11/29 03:15:47;;;;;;;2.90;2.23;;;21.30;79.80;;;;;;5023270;28;20469;-65
2023/11/29 03:18:15;;;;;;;2.63;1.90;;;21.20;79.80;;;;;;5022841;28;20462;-64
2023/11/29 03:20:41;;;;;;;2.37;2.17;;;21.30;79.90;;;;;;5020626;28;20553;-64
2023/11/29 03:23:08;;;;;;;3.30;1.90;;;21.30;80.00;;;;;;5020948;28;20992;-64
2023/11/29 03:25:35;;;;;;;4.27;2.83;;;21.30;80.00;;;;;;5023340;28;20467;-64
2023/11/29 03:28:02;;;;;;;3.00;2.30;;;21.30;80.00;;;;;;5024066;28;20465;-64
2023/11/29 03:30:28;;;;;;;3.00;2.37;;;21.30;79.80;;;;;;5024898;28;20462;-64
2023/11/29 03:32:55;;;;;;;3.20;2.20;;;21.20;79.70;;;;;;5027390;28;20561;-63
2023/11/29 03:35:23;;;;;;;2.45;2.08;;;21.20;79.80;;;;;;5026140;28;21175;-63
2023/11/29 03:37:50;;;;;;;2.37;1.87;;;21.30;80.00;;;;;;5027386;28;20200;-63
2023/11/29 03:40:16;;;;;;;2.50;2.17;;;21.30;79.20;;;;;;5029599;28;20472;-64
2023/11/29 03:42:43;;;;;;;2.70;2.20;;;21.30;79.80;;;;;;5033003;28;21506;-63
2023/11/29 03:45:10;;;;;;;3.10;1.90;;;21.30;80.80;;;;;;5021156;28;20472;-63
2023/11/29 03:47:37;;;;;;;3.20;2.00;;;21.30;80.00;;;;;;5018557;28;20493;-63
2023/11/29 03:50:04;;;;;;;1.70;1.50;;;21.20;79.20;;;;;;5029527;28;20466;-63
2023/11/29 03:52:33;;;;;;;3.47;2.50;;;21.30;80.60;;;;;;5023718;28;20465;-63
2023/11/29 03:54:59;;;;;;;2.20;1.90;;;21.30;80.10;;;;;;5028197;28;20442;-63
2023/11/29 03:57:26;;;;;;;2.27;2.07;;;21.20;79.80;;;;;;5024035;28;20454;-63
2023/11/29 03:59:53;;;;;;;5.23;2.40;;;21.20;80.80;;;;;;5023039;28;20843;-63
2023/11/29 04:02:19;;;;;;;2.70;2.10;;;21.20;79.80;;;;;;5023603;28;20453;-63
2023/11/29 04:04:46;;;;;;;3.50;2.37;;;21.30;80.10;;;;;;5026683;28;20499;-63
2023/11/29 04:07:13;;;;;;;2.27;1.70;;;21.30;80.10;;;;;;5022977;28;20459;-63
2023/11/29 04:09:42;;;;;;;4.27;1.90;;;21.30;80.00;;;;;;5027293;28;20542;-64
2023/11/29 04:12:10;;;;;;;2.90;2.50;;;21.30;80.00;;;;;;5025878;28;20458;-63
2023/11/29 04:14:37;;;;;;;2.07;1.63;;;21.30;80.00;;;;;;5027701;28;20500;-64
2023/11/29 04:17:04;;;;;;;2.20;2.00;;;21.30;80.10;;;;;;5027574;28;20473;-63
2023/11/29 04:19:30;;;;;;;2.73;2.20;;;21.30;80.10;;;;;;5025131;28;20467;-63
2023/11/29 04:21:57;;;;;;;1.70;1.43;;;21.30;79.60;;;;;;5024490;28;20465;-63
2023/11/29 04:24:24;;;;;;;1.97;1.77;;;21.20;80.00;;;;;;5029095;28;20458;-63
2023/11/29 04:26:52;;;;;;;2.30;1.80;;;21.30;80.10;;;;;;5028018;28;20461;-63
2023/11/29 04:29:19;;;;;;;2.60;2.40;;;21.30;80.00;;;;;;5026626;28;20453;-63
2023/11/29 04:31:45;;;;;;;3.60;2.23;;;21.20;80.10;;;;;;5027635;28;20476;-62
2023/11/29 04:34:12;;;;;;;2.10;1.70;;;21.20;80.00;;;;;;5027526;28;20492;-63
2023/11/29 04:36:40;;;;;;;2.10;1.80;;;21.20;79.90;;;;;;5022146;28;20483;-63
2023/11/29 04:39:09;;;;;;;3.50;1.60;;;21.30;80.20;;;;;;5021522;28;20469;-63
2023/11/29 04:41:36;;;;;;;2.70;2.10;;;21.30;80.10;;;;;;5022617;28;20466;-62
2023/11/29 04:44:06;;;;;;;2.27;2.07;;;21.20;80.10;;;;;;5023191;28;20475;-64
2023/11/29 04:46:32;;;;;;;3.10;2.10;;;21.30;80.10;;;;;;5024350;28;20517;-63
2023/11/29 04:48:59;;;;;;;3.50;1.70;;;21.20;80.10;;;;;;5024843;28;20463;-63
2023/11/29 04:51:26;;;;;;;3.20;1.87;;;21.20;79.80;;;;;;5022762;28;21212;-63
2023/11/29 04:53:53;;;;;;;2.13;1.93;;;21.20;80.20;;;;;;5024197;28;20518;-64
2023/11/29 04:56:20;;;;;;;1.73;1.60;;;21.30;80.10;;;;;;5025618;28;20458;-63
2023/11/29 04:58:47;;;;;;;2.83;2.00;;;21.20;80.20;;;;;;5024637;28;21064;-63
2023/11/29 05:01:15;;;;;;;1.70;1.60;;;21.30;80.30;;;;;;5023095;28;20473;-63
2023/11/29 05:03:42;;;;;;;2.70;2.00;;;21.20;79.80;;;;;;5025284;28;20449;-63
2023/11/29 05:06:10;;;;;;;1.73;1.63;;;21.30;80.30;;;;;;5027694;28;20480;-63
2023/11/29 05:08:37;;;;;;;1.83;1.63;;;21.20;80.20;;;;;;5023192;28;20690;-63
2023/11/29 05:11:05;;;;;;;1.93;1.70;;;21.30;80.20;;;;;;5022407;28;20459;-64
2023/11/29 05:13:32;;;;;;;3.10;1.90;;;21.30;80.30;;;;;;5024707;28;20551;-63
2023/11/29 05:15:58;;;;;;;2.00;1.80;;;21.30;80.30;;;;;;5024991;28;20473;-64
2023/11/29 05:18:27;;;;;;;1.90;1.80;;;21.30;80.20;;;;;;5021155;28;20458;-63
2023/11/29 05:20:54;;;;;;;3.37;2.00;;;21.20;80.00;;;;;;5024603;28;20458;-64
2023/11/29 05:23:21;;;;;;;2.20;1.70;;;21.30;80.20;;;;;;5023644;28;20470;-64
2023/11/29 05:25:48;;;;;;;2.20;2.00;;;21.20;80.10;;;;;;5026500;28;20450;-63
2023/11/29 05:28:14;;;;;;;2.47;1.80;;;21.30;80.20;;;;;;5025637;28;20458;-64
2023/11/29 05:30:42;;;;;;;2.90;2.17;;;21.30;80.30;;;;;;5026998;28;20467;-63
2023/11/29 05:33:08;;;;;;;2.23;2.03;;;21.30;80.20;;;;;;5024923;28;20498;-63
2023/11/29 05:35:37;;;;;;;2.13;1.67;;;21.20;80.00;;;;;;5025214;28;20460;-63
2023/11/29 05:38:03;;;;;;;4.07;1.53;;;21.30;80.10;;;;;;5026178;28;20986;-63
2023/11/29 05:40:30;;;;;;;2.03;1.83;;;21.20;80.10;;;;;;5026754;28;20462;-64
2023/11/29 05:42:57;;;;;;;3.33;1.70;;;21.30;80.10;;;;;;5026947;28;20831;-63
2023/11/29 05:45:23;;;;;;;2.27;2.00;;;21.30;80.10;;;;;;5027992;28;20450;-63
2023/11/29 05:47:50;;;;;;;2.47;1.83;;;21.20;80.10;;;;;;5023589;28;20802;-63
2023/11/29 05:50:17;;;;;;;3.60;1.87;;;21.20;80.00;;;;;;5027644;28;20450;-63
2023/11/29 05:52:45;;;;;;;2.83;1.40;;;21.20;80.10;;;;;;5025941;28;20981;-63
2023/11/29 05:55:13;;;;;;;1.43;1.20;;;21.30;80.20;;;;;;5029302;28;20486;-63
2023/11/29 05:57:44;;;;;;;1.60;1.47;;;21.20;80.10;;;;;;5028992;28;20457;-64
2023/11/29 06:00:13;;;;;;;1.90;1.53;;;21.30;80.20;;;;;;5029122;28;20460;-63
2023/11/29 06:02:40;;;;;;;2.97;1.37;;;21.30;80.10;;;;;;5029372;28;20458;-64
2023/11/29 06:05:08;;;;;;;1.43;1.33;;;21.30;80.20;;;;;;5031602;28;20892;-63
2023/11/29 06:07:35;;;;;;;1.73;1.60;;;21.20;80.20;;;;;;5026960;28;21111;-63
2023/11/29 06:10:14;;;;;;;2.00;1.70;;;21.20;80.20;;;;;;5028059;28;20926;-64
2023/11/29 06:12:41;;;;;;;1.60;1.50;;;21.30;80.30;;;;;;5030771;28;20510;-63
2023/11/29 06:15:08;;;;;;;2.53;1.53;;;21.30;80.20;;;;;;5029780;28;20481;-64
2023/11/29 06:17:36;;;;;;;2.73;2.03;;;21.30;80.20;;;;;;5030536;28;20469;-63
2023/11/29 06:20:04;;;;;;;2.93;2.13;;;21.30;80.30;;;;;;5028047;28;20965;-64
2023/11/29 06:22:32;;;;;;;2.80;1.87;;;21.20;80.00;;;;;;5025592;28;20541;-62
2023/11/29 06:24:59;;;;;;;1.83;1.70;;;21.30;80.10;;;;;;5024543;28;21139;-63
2023/11/29 06:27:28;;;;;;;1.87;1.70;;;21.30;80.20;;;;;;5036952;28;20663;-64
2023/11/29 06:29:55;;;;;;;2.20;1.63;;;21.30;80.20;;;;;;5029630;28;20481;-64
2023/11/29 06:32:22;;;;;;;2.10;1.60;;;21.30;80.30;;;;;;5033698;28;20818;-64
2023/11/29 06:34:48;;;;;;;2.77;1.90;;;21.20;80.10;;;;;;5033097;28;20554;-62
2023/11/29 06:37:15;;;;;;;1.60;1.23;;;21.30;80.30;;;;;;5032647;28;20460;-64
2023/11/29 06:39:43;;;;;;;1.97;1.77;;;21.30;80.40;;;;;;5029056;28;20520;-63
2023/11/29 06:42:13;;;;;;;2.30;1.53;;;21.20;80.30;;;;;;5026269;28;20468;-63
2023/11/29 06:44:41;;;;;;;1.77;1.60;;;21.30;80.20;;;;;;5026034;28;20496;-63
2023/11/29 06:47:08;;;;;;;2.20;1.90;;;21.30;80.30;;;;;;5027116;28;20468;-63
2023/11/29 06:49:35;;;;;;;2.00;1.40;;;21.20;80.20;;;;;;5026954;28;20463;-63
2023/11/29 06:52:02;;;;;;;2.20;1.60;;;21.20;80.10;;;;;;5029452;28;20543;-62
2023/11/29 06:54:29;;;;;;;2.40;2.00;;;21.20;80.20;;;;;;5025942;28;20494;-63
2023/11/29 06:56:56;;;;;;;1.77;1.17;;;21.20;80.20;;;;;;5024471;28;20473;-65
2023/11/29 06:59:22;;;;;;;7.00;1.40;;;21.30;80.00;;;;;;5025145;28;20492;-66
2023/11/29 07:01:50;;;;;;;2.67;1.53;;;21.20;80.60;;;;;;5029219;28;20457;-66
2023/11/29 07:04:17;;;;;;;5.33;1.63;;;21.30;80.80;;;;;;5029881;28;20459;-67
2023/11/29 07:06:44;;;;;;;4.90;1.37;;;21.20;80.70;;;;;;5027399;28;20430;-65
2023/11/29 07:09:13;;;;;;;6.13;1.60;;;21.20;81.00;;;;;;5025858;28;20450;-64
2023/11/29 07:11:40;;;;;;;3.40;1.40;;;21.20;80.90;;;;;;5027525;28;21249;-65
2023/11/29 07:14:07;;;;;;;2.80;1.43;;;21.20;80.70;;;;;;5025760;28;20486;-64
2023/11/29 07:16:34;;;;;;;5.20;1.37;;;21.20;80.90;;;;;;5020694;28;21061;-69
2023/11/29 07:19:03;;;;;;;3.67;1.57;;;21.20;80.60;;;;;;5027153;28;20468;-68
2023/11/29 07:21:30;;;;;;;3.70;1.83;;;21.10;80.80;;;;;;5026099;28;21010;-69
2023/11/29 07:23:57;;;;;;;1.60;1.37;;;21.10;79.50;;;;;;5024001;28;20894;-71
2023/11/29 07:26:23;;;;;;;2.33;1.60;;;21.20;79.90;;;;;;5027909;28;20470;-70
2023/11/29 07:28:50;;;;;;;1.67;1.43;;;21.20;79.80;;;;;;5027085;28;21208;-68
2023/11/29 07:31:18;;;;;;;2.33;1.47;;;21.10;79.50;;;;;;5022379;28;20490;-71
2023/11/29 07:33:44;;;;;;;1.60;1.30;;;21.10;79.40;;;;;;5025548;28;20549;-70
2023/11/29 07:36:14;;;;;;;1.77;1.20;;;21.10;79.50;;;;;;5026947;28;20983;-70
2023/11/29 07:38:42;;;;;;;2.10;1.40;;;21.20;80.00;;;;;;5022663;28;20467;-71
2023/11/29 07:41:09;;;;;;;2.00;1.30;;;21.10;79.90;;;;;;5028220;28;20468;-68
2023/11/29 07:43:36;;;;;;;2.90;1.43;;;21.30;80.10;;;;;;5027736;28;20200;-70
2023/11/29 07:46:03;;;;;;;2.60;2.03;;;21.20;80.20;;;;;;5027830;28;20466;-71
2023/11/29 07:48:30;;;;;;;1.73;1.30;;;21.20;80.20;;;;;;5022925;28;20493;-70
2023/11/29 07:50:57;;;;;;;1.80;1.43;;;21.20;80.40;;;;;;5023327;28;20979;-70
2023/11/29 07:53:25;;;;;;;1.50;1.33;;;21.20;80.40;;;;;;5018868;28;20462;-67
2023/11/29 07:55:52;;;;;;;2.55;1.65;;;21.20;80.30;;;;;;5024412;28;20486;-68
2023/11/29 07:58:19;;;;;;;2.47;1.60;;;21.30;80.70;;;;;;5021474;28;20196;-70
2023/11/29 08:00:46;;;;;;;2.50;1.53;;;21.30;80.70;;;;;;5020055;28;20439;-68
2023/11/29 08:03:14;;;;;;;2.17;1.70;;;21.30;80.70;;;;;;5022639;28;20454;-69
2023/11/29 08:05:41;;;;;;;1.30;1.17;;;21.20;80.50;;;;;;5017848;28;20564;-70
2023/11/29 08:08:08;;;;;;;1.80;1.50;;;21.20;80.60;;;;;;5019937;28;20471;-69
2023/11/29 08:10:36;;;;;;;1.40;1.20;;;21.20;80.70;;;;;;5020291;28;20484;-73
2023/11/29 08:13:03;;;;;;;1.50;1.30;;;21.20;80.80;;;;;;5023165;28;20466;-63
2023/11/29 08:15:29;;;;;;;5.20;1.57;;;21.20;81.10;;;;;;5025589;28;20483;-76
2023/11/29 08:17:56;;;;;;;13.27;1.60;;;21.20;80.90;;;;;;5022823;28;20458;-69
2023/11/29 08:20:23;;;;;;;5.90;1.67;;;21.20;81.00;;;;;;5025456;28;20500;-70
2023/11/29 08:22:50;;;;;;;5.27;1.33;;;21.20;80.50;;;;;;5029683;28;21023;-70
2023/11/29 08:25:17;;;;;;;2.30;1.43;;;21.20;80.50;;;;;;5019640;28;20465;-74
2023/11/29 08:27:45;;;;;;;5.17;1.47;;;21.20;80.50;;;;;;5028603;28;20458;-70
2023/11/29 08:30:12;;;;;;;3.30;1.20;;;21.20;80.70;;;;;;5027695;28;20921;-68
2023/11/29 08:32:40;;;;;;;2.10;1.10;;;21.20;80.70;;;;;;5020789;28;20196;-70
2023/11/29 08:35:08;;;;;;;3.37;1.30;;;21.20;80.80;;;;;;5027269;28;20481;-69
2023/11/29 08:37:35;;;;;;;2.17;1.70;;;21.20;80.90;;;;;;5029065;28;20541;-68
2023/11/29 08:40:03;;;;;;;1.63;1.00;;;21.20;81.10;;;;;;5027895;28;20472;-69
2023/11/29 08:42:30;;;;;;;2.20;1.50;;;21.30;81.30;;;;;;5025171;28;20191;-70
2023/11/29 08:44:58;;;;;;;1.40;0.87;;;21.20;81.20;;;;;;5024609;28;20497;-70
2023/11/29 08:47:25;;;;;;;3.53;1.73;;;21.20;81.40;;;;;;5027446;28;20457;-69
2023/11/29 08:49:52;;;;;;;2.00;1.40;;;21.30;81.70;;;;;;5033439;28;20461;-70
2023/11/29 08:52:19;;;;;;;1.57;1.40;;;21.30;81.80;;;;;;5029480;28;20469;-74
2023/11/29 08:54:49;;;;;;;3.03;1.10;;;21.30;81.90;;;;;;5025279;28;20481;-69
2023/11/29 08:57:17;;;;;;;1.33;1.20;;;21.40;81.50;;;;;;5028127;28;20820;-69
2023/11/29 08:59:44;;;;;;;2.90;1.50;;;21.30;82.30;;;;;;5031106;28;20472;-69
2023/11/29 09:02:12;;;;;;;2.40;1.37;;;21.40;81.40;;;;;;5025188;28;20496;-70
2023/11/29 09:04:39;;;;;;;2.70;1.40;;;21.30;81.30;;;;;;5022453;28;20465;-69
2023/11/29 09:07:07;;;;;;;4.10;1.20;;;21.40;81.10;;;;;;5019808;28;20994;-69
2023/11/29 09:09:34;;;;;;;1.73;1.40;;;21.40;81.70;;;;;;5025062;28;20465;-69
2023/11/29 09:12:01;;;;;;;1.50;1.20;;;21.40;81.20;;;;;;5025115;28;20466;-69
2023/11/29 09:14:30;;;;;;;1.50;1.30;;;21.40;81.30;;;;;;5026314;28;20521;-68
2023/11/29 09:16:57;;;;;;;1.80;1.20;;;21.40;81.50;;;;;;5025388;28;20466;-69
2023/11/29 09:19:25;;;;;;;1.60;1.33;;;21.30;81.30;;;;;;5026020;28;20523;-69
2023/11/29 09:21:52;;;;;;;1.90;1.50;;;21.50;81.70;;;;;;5028420;28;20465;-69
2023/11/29 09:24:18;;;;;;;3.47;1.47;;;21.40;81.60;;;;;;5022171;28;20465;-69
2023/11/29 09:26:45;;;;;;;1.80;1.30;;;21.50;81.70;;;;;;5020014;28;20459;-69
2023/11/29 09:29:12;;;;;;;1.40;1.20;;;21.30;81.40;;;;;;5020669;28;20469;-68
2023/11/29 09:31:39;;;;;;;1.10;1.00;;;21.40;81.50;;;;;;5022276;28;20962;-69
2023/11/29 09:34:06;;;;;;;1.40;1.23;;;21.40;81.50;;;;;;5019835;28;20454;-68
2023/11/29 09:36:34;;;;;;;1.77;1.27;;;21.40;80.90;;;;;;5025780;28;20496;-68
2023/11/29 09:39:07;;;;;;;2.07;1.20;;;21.50;81.80;;;;;;5027012;28;20473;-69
2023/11/29 09:41:34;;;;;;;1.50;1.27;;;21.40;81.50;;;;;;5029601;28;20488;-69
2023/11/29 09:44:03;;;;;;;1.80;1.37;;;21.40;81.50;;;;;;5023927;28;20465;-69
2023/11/29 09:46:31;;;;;;;1.60;1.17;;;21.40;81.60;;;;;;5025769;28;20464;-69
2023/11/29 09:48:58;;;;;;;1.43;1.30;;;21.40;81.60;;;;;;5026879;28;21048;-69
2023/11/29 09:51:25;;;;;;;1.33;0.90;;;21.40;81.70;;;;;;5028259;28;20456;-69
2023/11/29 09:53:53;;;;;;;1.80;1.47;;;21.40;81.70;;;;;;5029241;28;20453;-68
2023/11/29 09:56:20;;;;;;;1.87;1.20;;;21.40;81.70;;;;;;5027790;28;20474;-68
2023/11/29 09:58:47;;;;;;;1.33;0.93;;;21.40;81.70;;;;;;5019977;28;20471;-68
2023/11/29 10:01:15;;;;;;;2.00;1.20;;;21.40;81.50;;;;;;5020966;28;20539;-69
2023/11/29 10:03:42;;;;;;;1.50;1.00;;;21.40;81.60;;;;;;5027888;28;20492;-68
2023/11/29 10:06:09;;;;;;;1.60;1.30;;;21.40;81.80;;;;;;5018006;28;20509;-68
2023/11/29 10:08:37;;;;;;;1.70;1.07;;;21.40;81.60;;;;;;5022926;28;20485;-70
2023/11/29 10:11:06;;;;;;;1.60;1.03;;;21.40;81.80;;;;;;5026205;28;20457;-69
2023/11/29 10:13:33;;;;;;;1.40;0.90;;;21.40;81.40;;;;;;5023366;28;20470;-68
2023/11/29 10:16:00;;;;;;;9.10;1.43;;;21.60;81.90;;;;;;5029137;28;20477;-76
2023/11/29 10:18:26;;;;;;;3.63;1.40;;;21.50;81.70;;;;;;5028152;28;20472;-72
2023/11/29 10:20:53;;;;;;;13.90;1.53;;;21.50;82.00;;;;;;5028937;28;20466;-64
2023/11/29 10:23:24;;;;;;;7.70;1.83;;;21.50;82.10;;;;;;5026952;28;20543;-64
2023/11/29 10:25:51;;;;;;;1.83;1.03;;;21.50;82.00;;;;;;5027984;28;20854;-65
2023/11/29 10:28:19;;;;;;;3.10;1.37;;;21.50;82.20;;;;;;5028506;28;20439;-65
2023/11/29 10:30:46;;;;;;;16.60;2.00;;;21.50;82.20;;;;;;5032461;28;20446;-65
2023/11/29 10:33:13;;;;;;;2.37;1.30;;;21.60;82.50;;;;;;5030716;28;20477;-64
2023/11/29 10:35:41;;;;;;;2.80;1.40;;;21.50;82.20;;;;;;5033709;28;20479;-66
2023/11/29 10:38:11;;;;;;;2.33;1.40;;;21.50;82.30;;;;;;5026862;28;20491;-64
2023/11/29 10:40:40;;;;;;;2.40;1.20;;;21.60;82.60;;;;;;5024966;28;20532;-67
2023/11/29 10:43:10;;;;;;;2.70;1.40;;;21.50;82.10;;;;;;5030082;28;20451;-65
2023/11/29 10:45:42;;;;;;;4.87;1.43;;;21.60;82.30;;;;;;5025726;28;20457;-65
2023/11/29 10:48:15;;;;;;;3.90;1.40;;;21.50;82.30;;;;;;5027936;28;20459;-65
2023/11/29 10:50:46;;;;;;;6.80;1.30;;;21.50;82.30;;;;;;5028817;28;20464;-66
2023/11/29 10:53:13;;;;;;;4.10;1.00;;;21.50;82.10;;;;;;5029691;28;20464;-65
2023/11/29 10:55:40;;;;;;;1.57;1.20;;;21.50;82.20;;;;;;5028381;28;21353;-65
2023/11/29 10:58:20;;;;;;;1.30;1.00;;;21.50;81.60;;;;;;5025014;28;20438;-64
2023/11/29 11:00:48;;;;;;;2.83;1.17;;;21.50;82.10;;;;;;5025199;28;21184;-65
2023/11/29 11:03:40;;;;;;;1.30;1.00;;;21.40;81.90;;;;;;5022166;28;20462;-65
2023/11/29 11:06:39;;;;;;;1.40;1.03;;;21.40;81.90;;;;;;5007162;28;20516;-65
2023/11/29 11:09:30;;;;;;;3.30;1.67;;;21.50;82.10;;;;;;5028271;28;21019;-65
2023/11/29 11:11:58;;;;;;;3.70;1.40;;;21.50;82.00;;;;;;5024695;28;20458;-65
2023/11/29 11:14:30;;;;;;;3.23;1.20;;;21.40;81.90;;;;;;5024032;28;20463;-65
2023/11/29 11:17:00;;;;;;;1.60;1.20;;;21.40;82.10;;;;;;5025675;28;20543;-65
2023/11/29 11:19:33;;;;;;;2.37;1.60;;;21.50;82.30;;;;;;5027744;28;20456;-64
2023/11/29 11:22:01;;;;;;;2.43;1.27;;;21.40;82.10;;;;;;5024688;28;20457;-65
2023/11/29 11:25:07;;;;;;;1.30;1.00;;;21.40;82.00;;;;;;5024796;28;20462;-64
2023/11/29 11:27:35;;;;;;;2.10;1.00;;;21.50;82.10;;;;;;5018872;28;20439;-64
2023/11/29 11:30:26;;;;;;;2.03;1.13;;;21.40;82.00;;;;;;5029921;28;20540;-64
2023/11/29 11:32:57;;;;;;;2.27;1.00;;;21.40;82.10;;;;;;5023063;28;20869;-65
2023/11/29 11:35:31;;;;;;;4.80;1.20;;;21.40;82.00;;;;;;5029262;28;20568;-68
2023/11/29 11:37:59;;;;;;;1.53;1.00;;;21.40;81.80;;;;;;5029782;28;20556;-69
2023/11/29 11:40:28;;;;;;;1.10;0.80;;;21.30;81.70;;;;;;5024784;28;20457;-64
2023/11/29 11:42:56;;;;;;;3.37;1.10;;;21.50;82.30;;;;;;5019496;28;20465;-61
2023/11/29 11:45:23;;;;;;;3.97;1.10;;;21.50;82.10;;;;;;5020647;28;20882;-62
2023/11/29 11:47:51;;;;;;;1.60;1.30;;;21.40;82.50;;;;;;5018643;28;20803;-61
2023/11/29 11:50:19;;;;;;;1.13;0.97;;;21.40;82.60;;;;;;5024404;28;20462;-62
2023/11/29 11:52:46;;;;;;;3.40;1.43;;;21.50;82.90;;;;;;5024881;28;20457;-64
2023/11/29 11:55:15;;;;;;;1.50;1.10;;;21.40;82.60;;;;;;5026453;28;20458;-63
2023/11/29 11:57:43;;;;;;;1.83;1.07;;;21.50;83.30;;;;;;5024535;28;20462;-62
2023/11/29 12:00:12;;;;;;;3.27;1.10;;;21.50;83.50;;;;;;5022253;28;20466;-66
2023/11/29 12:02:39;;;;;;;3.10;1.07;;;21.50;83.40;;;;;;5023935;28;20450;-65
2023/11/29 12:05:08;;;;;;;2.03;1.40;;;21.60;83.80;;;;;;5026211;28;20477;-67
2023/11/29 12:07:39;;;;;;;5.82;1.65;;;21.60;84.50;;;;;;5018616;28;20562;-68
2023/11/29 12:10:06;;;;;;;4.20;1.63;;;21.70;78.60;;;;;;5024081;28;20289;-70
2023/11/29 12:12:33;;;;;;;6.60;1.50;;;21.70;79.60;;;;;;5025028;28;20457;-70
2023/11/29 12:15:02;;;;;;;10.03;1.30;;;21.70;78.90;;;;;;5021224;28;20977;-66
2023/11/29 12:17:33;;;;;;;3.33;1.60;;;21.70;78.90;;;;;;5020161;28;20459;-69
2023/11/29 12:20:01;;;;;;;12.00;1.90;;;21.70;79.40;;;;;;5023216;28;20456;-63
2023/11/29 12:22:28;;;;;;;5.63;1.60;;;21.90;80.60;;;;;;5025663;28;20462;-61
2023/11/29 12:24:57;;;;;;;4.37;1.50;;;21.80;79.40;;;;;;5024841;28;20462;-63
2023/11/29 12:27:26;;;;;;;4.37;1.30;;;21.80;79.30;;;;;;5014486;28;20505;-64
2023/11/29 12:29:57;;;;;;;2.20;1.10;;;21.80;79.20;;;;;;5022232;28;20513;-62
2023/11/29 12:32:27;;;;;;;1.70;1.33;;;21.80;78.80;;;;;;5021959;28;20957;-59
2023/11/29 12:34:56;;;;;;;3.90;1.50;;;21.80;79.00;;;;;;5023480;28;20944;-67
2023/11/29 12:37:23;;;;;;;3.27;1.20;;;21.80;80.00;;;;;;5025753;28;20512;-68
2023/11/29 12:39:50;;;;;;;3.03;1.20;;;21.80;79.40;;;;;;5024711;28;20551;-66
2023/11/29 12:42:18;;;;;;;3.93;1.43;;;21.80;79.40;;;;;;5027058;28;20465;-67
2023/11/29 12:44:45;;;;;;;2.90;1.20;;;21.80;79.40;;;;;;5027430;28;20475;-68
2023/11/29 12:47:12;;;;;;;6.53;1.23;;;21.80;79.50;;;;;;5027700;28;20467;-69
2023/11/29 12:49:39;;;;;;;6.37;1.30;;;21.80;79.40;;;;;;5024823;28;21177;-69